createdAt,value
2022-12-26T00:00:42.127Z,16.60
2022-12-26T00:03:28.133Z,16.60
2022-12-26T00:06:19.521Z,16.70
2022-12-26T00:09:06.545Z,16.60
2022-12-26T00:11:51.921Z,16.60
2022-12-26T00:14:38.774Z,16.60
2022-12-26T00:17:24.112Z,16.60
2022-12-26T00:20:10.219Z,16.60
2022-12-26T00:22:55.728Z,16.60
2022-12-26T00:25:43.130Z,16.60
2022-12-26T00:28:28.760Z,16.60
2022-12-26T00:31:17.770Z,16.50
2022-12-26T00:34:03.443Z,16.50
2022-12-26T00:36:49.170Z,16.50
2022-12-26T00:39:34.432Z,16.50
2022-12-26T00:42:19.925Z,16.50
2022-12-26T00:45:06.000Z,16.50
2022-12-26T00:47:51.379Z,16.60
2022-12-26T00:50:37.097Z,16.60
2022-12-26T00:53:23.323Z,16.50
2022-12-26T00:56:09.105Z,16.50
2022-12-26T00:58:55.125Z,16.50
2022-12-26T01:01:42.155Z,16.50
2022-12-26T01:04:28.619Z,16.50
2022-12-26T01:07:14.205Z,16.50
2022-12-26T01:10:00.461Z,16.50
2022-12-26T01:12:45.940Z,16.50
2022-12-26T01:15:32.557Z,16.50
2022-12-26T01:18:19.679Z,16.50
2022-12-26T01:21:08.081Z,16.50
2022-12-26T01:23:53.493Z,16.50
2022-12-26T01:26:38.952Z,16.50
2022-12-26T01:29:24.512Z,16.40
2022-12-26T01:32:10.223Z,16.40
2022-12-26T01:34:56.333Z,16.50
2022-12-26T01:37:41.739Z,16.50
2022-12-26T01:40:27.382Z,16.50
2022-12-26T01:43:14.864Z,16.40
2022-12-26T01:46:00.407Z,16.50
2022-12-26T01:48:46.218Z,16.40
2022-12-26T01:51:36.810Z,16.40
2022-12-26T01:54:37.456Z,16.40
2022-12-26T01:57:36.581Z,16.40
2022-12-26T02:00:21.981Z,16.40
2022-12-26T02:03:27.109Z,16.40
2022-12-26T02:06:14.721Z,16.40
2022-12-26T02:09:00.802Z,16.40
2022-12-26T02:12:35.550Z,16.40
2022-12-26T02:15:00.718Z,16.50
2022-12-26T02:17:46.290Z,16.40
2022-12-26T02:20:46.201Z,16.40
2022-12-26T02:23:44.641Z,16.40
2022-12-26T02:26:56.993Z,16.40
2022-12-26T02:30:05.408Z,16.40
2022-12-26T02:33:05.192Z,16.40
2022-12-26T02:36:02.491Z,16.40
2022-12-26T02:38:50.983Z,16.40
2022-12-26T02:41:48.738Z,16.30
2022-12-26T02:45:16.679Z,16.40
2022-12-26T02:48:13.677Z,16.30
2022-12-26T02:51:51.539Z,16.30
2022-12-26T02:55:14.898Z,16.30
2022-12-26T02:58:25.328Z,16.40
2022-12-26T03:01:51.783Z,16.30
2022-12-26T03:04:59.017Z,16.30
2022-12-26T03:08:04.852Z,16.30
2022-12-26T03:11:10.625Z,16.30
2022-12-26T03:14:08.704Z,16.30
2022-12-26T03:17:18.293Z,16.30
2022-12-26T03:20:10.853Z,16.30
2022-12-26T03:23:01.171Z,16.30
2022-12-26T03:26:17.968Z,16.30
2022-12-26T03:29:22.687Z,16.30
2022-12-26T03:32:12.378Z,16.20
2022-12-26T03:34:58.125Z,16.20
2022-12-26T03:37:56.679Z,16.30
2022-12-26T03:41:35.465Z,16.30
2022-12-26T03:44:54.537Z,16.20
2022-12-26T03:48:23.325Z,16.30
2022-12-26T03:51:37.304Z,16.20
2022-12-26T03:55:08.658Z,16.30
2022-12-26T03:58:22.488Z,16.20
2022-12-26T04:01:33.568Z,16.20
2022-12-26T04:04:39.357Z,16.20
2022-12-26T04:07:56.444Z,16.20
2022-12-26T04:11:13.940Z,16.20
2022-12-26T04:14:47.015Z,16.20
2022-12-26T04:18:20.792Z,16.20
2022-12-26T04:21:42.505Z,16.20
2022-12-26T04:24:52.981Z,16.20
2022-12-26T04:27:56.849Z,16.10
2022-12-26T04:31:07.709Z,16.20
2022-12-26T04:34:18.659Z,16.10
2022-12-26T04:37:25.471Z,16.10
2022-12-26T04:40:37.636Z,16.10
2022-12-26T04:43:49.049Z,16.20
2022-12-26T04:46:40.348Z,16.20
2022-12-26T04:49:45.856Z,16.20
2022-12-26T04:52:50.701Z,16.20
2022-12-26T04:55:42.046Z,16.20
2022-12-26T04:58:29.457Z,16.30
2022-12-26T05:01:36.212Z,16.40
2022-12-26T05:04:42.922Z,16.40
2022-12-26T05:07:56.288Z,16.40
2022-12-26T05:10:42.615Z,16.50
2022-12-26T05:13:28.174Z,16.60
2022-12-26T05:16:31.979Z,16.60
2022-12-26T05:19:36.450Z,16.60
2022-12-26T05:22:41.874Z,16.70
2022-12-26T05:25:55.267Z,16.80
2022-12-26T05:28:43.594Z,16.80
2022-12-26T05:31:34.996Z,16.90
2022-12-26T05:34:21.417Z,17.00
2022-12-26T05:37:07.094Z,17.10
2022-12-26T05:39:52.823Z,17.20
2022-12-26T05:42:38.200Z,17.30
2022-12-26T05:45:23.840Z,17.40
2022-12-26T05:48:09.541Z,17.50
2022-12-26T05:51:02.821Z,17.60
2022-12-26T05:53:48.598Z,17.60
2022-12-26T05:56:34.214Z,17.70
2022-12-26T05:59:19.755Z,17.70
2022-12-26T06:02:05.451Z,17.70
2022-12-26T06:04:50.849Z,17.70
2022-12-26T06:07:36.298Z,17.70
2022-12-26T06:10:21.857Z,17.70
2022-12-26T06:13:07.316Z,17.70
2022-12-26T06:15:52.970Z,17.70
2022-12-26T06:18:38.867Z,17.70
2022-12-26T06:21:24.937Z,17.70
2022-12-26T06:24:10.585Z,17.70
2022-12-26T06:26:56.659Z,17.70
2022-12-26T06:29:42.607Z,17.70
2022-12-26T06:32:28.278Z,17.70
2022-12-26T06:35:13.821Z,17.70
2022-12-26T06:37:59.469Z,17.70
2022-12-26T06:40:45.103Z,17.70
2022-12-26T06:43:30.711Z,20.30
2022-12-26T06:46:23.858Z,17.70
2022-12-26T06:49:09.356Z,17.70
2022-12-26T06:51:54.770Z,17.80
2022-12-26T06:54:40.787Z,17.80
2022-12-26T06:57:26.297Z,17.80
2022-12-26T07:00:13.491Z,17.80
2022-12-26T07:02:59.115Z,17.80
2022-12-26T07:05:44.428Z,17.80
2022-12-26T07:08:29.957Z,17.80
2022-12-26T07:11:21.013Z,17.80
2022-12-26T07:14:07.940Z,17.80
2022-12-26T07:16:53.458Z,17.80
2022-12-26T07:19:39.021Z,17.80
2022-12-26T07:22:24.579Z,17.90
2022-12-26T07:25:10.148Z,17.90
2022-12-26T07:27:56.775Z,17.90
2022-12-26T07:30:49.682Z,17.90
2022-12-26T07:33:35.835Z,18.00
2022-12-26T07:36:22.747Z,18.00
2022-12-26T07:39:08.850Z,18.10
2022-12-26T07:42:00.443Z,18.20
2022-12-26T07:44:46.078Z,18.10
2022-12-26T07:47:31.592Z,18.10
2022-12-26T07:50:17.109Z,18.10
2022-12-26T07:53:02.552Z,18.20
2022-12-26T07:55:48.412Z,18.10
2022-12-26T07:58:35.170Z,18.20
2022-12-26T08:01:21.011Z,18.20
2022-12-26T08:04:07.449Z,18.20
2022-12-26T08:06:53.178Z,18.30
2022-12-26T08:09:42.808Z,18.20
2022-12-26T08:12:28.610Z,18.30
2022-12-26T08:15:14.087Z,18.20
2022-12-26T08:17:59.869Z,18.20
2022-12-26T08:20:46.573Z,18.30
2022-12-26T08:23:32.098Z,18.40
2022-12-26T08:26:22.631Z,18.40
2022-12-26T08:29:10.536Z,18.50
2022-12-26T08:31:55.983Z,18.60
2022-12-26T08:34:41.465Z,18.50
2022-12-26T08:37:27.356Z,18.60
2022-12-26T08:40:15.272Z,18.50
2022-12-26T08:43:21.413Z,18.40
2022-12-26T08:46:28.003Z,18.40
2022-12-26T08:49:13.907Z,18.50
2022-12-26T08:51:59.621Z,18.50
2022-12-26T08:54:45.274Z,18.50
2022-12-26T08:57:31.502Z,18.50
2022-12-26T09:00:17.798Z,18.40
2022-12-26T09:03:03.291Z,18.40
2022-12-26T09:05:48.824Z,18.40
2022-12-26T09:08:35.324Z,18.40
2022-12-26T09:11:26.939Z,18.40
2022-12-26T09:14:13.279Z,18.40
2022-12-26T09:16:58.972Z,18.40
2022-12-26T09:19:44.717Z,18.40
2022-12-26T09:22:48.649Z,18.40
2022-12-26T09:25:34.022Z,18.40
2022-12-26T09:28:19.582Z,18.40
2022-12-26T09:31:08.069Z,18.30
2022-12-26T09:33:54.032Z,18.30
2022-12-26T09:36:39.563Z,18.20
2022-12-26T09:39:25.280Z,18.30
2022-12-26T09:42:37.834Z,18.30
2022-12-26T09:45:42.557Z,18.30
2022-12-26T09:48:35.332Z,19.20
2022-12-26T09:51:21.463Z,18.50
2022-12-26T09:54:11.750Z,18.40
2022-12-26T09:57:02.732Z,18.40
2022-12-26T09:59:54.310Z,18.50
2022-12-26T10:02:40.330Z,18.50
2022-12-26T10:05:33.143Z,18.50
2022-12-26T10:08:51.171Z,18.50
2022-12-26T10:11:54.388Z,18.60
2022-12-26T10:15:20.297Z,18.50
2022-12-26T10:18:20.793Z,18.50
2022-12-26T10:21:25.197Z,18.40
2022-12-26T10:24:13.900Z,18.50
2022-12-26T10:27:09.705Z,18.50
2022-12-26T10:30:00.477Z,18.60
2022-12-26T10:32:50.744Z,18.50
2022-12-26T10:35:41.969Z,18.50
2022-12-26T10:38:42.029Z,18.40
2022-12-26T10:41:41.080Z,18.40
2022-12-26T10:44:28.131Z,18.40
2022-12-26T10:47:13.576Z,18.30
2022-12-26T10:50:00.025Z,18.30
2022-12-26T10:52:45.746Z,18.20
2022-12-26T10:55:35.596Z,18.20
2022-12-26T10:58:28.634Z,18.10
2022-12-26T11:01:39.507Z,18.00
2022-12-26T11:04:53.254Z,18.00
2022-12-26T11:07:36.968Z,18.00
2022-12-26T11:10:26.447Z,18.00
2022-12-26T11:13:20.777Z,18.00
2022-12-26T11:16:08.605Z,17.90
2022-12-26T11:18:54.877Z,17.90
2022-12-26T11:21:40.711Z,17.90
2022-12-26T11:24:26.461Z,17.90
2022-12-26T11:27:23.938Z,17.80
2022-12-26T11:30:14.030Z,17.80
2022-12-26T11:33:23.110Z,17.80
2022-12-26T11:36:18.697Z,17.80
2022-12-26T11:39:07.822Z,17.70
2022-12-26T11:41:54.098Z,17.70
2022-12-26T11:44:45.412Z,17.70
2022-12-26T11:47:31.186Z,17.80
2022-12-26T11:50:21.525Z,17.70
2022-12-26T11:53:07.498Z,17.70
2022-12-26T11:56:06.070Z,17.60
2022-12-26T11:59:13.695Z,17.70
2022-12-26T12:02:25.328Z,17.70
2022-12-26T12:05:34.627Z,17.70
2022-12-26T12:09:06.215Z,17.70
2022-12-26T12:12:09.415Z,17.70
2022-12-26T12:15:12.731Z,17.70
2022-12-26T12:18:32.647Z,17.70
2022-12-26T12:21:45.793Z,17.70
2022-12-26T12:24:46.389Z,17.70
2022-12-26T12:27:46.564Z,17.70
2022-12-26T12:30:53.916Z,17.60
2022-12-26T12:33:51.739Z,17.60
2022-12-26T12:37:02.405Z,17.70
2022-12-26T12:40:07.922Z,17.70
2022-12-26T12:43:19.861Z,17.70
2022-12-26T12:46:20.727Z,17.70
2022-12-26T12:49:27.440Z,17.70
2022-12-26T12:52:30.995Z,17.70
2022-12-26T12:55:19.801Z,17.60
2022-12-26T12:58:19.466Z,17.70
2022-12-26T13:01:24.949Z,17.70
2022-12-26T13:04:25.692Z,17.70
2022-12-26T13:07:19.554Z,17.70
2022-12-26T13:10:15.075Z,17.70
2022-12-26T13:13:53.321Z,17.70
2022-12-26T13:16:43.791Z,17.70
2022-12-26T13:19:42.812Z,17.60
2022-12-26T13:22:55.198Z,17.70
2022-12-26T13:26:05.189Z,17.70
2022-12-26T13:29:06.324Z,17.70
2022-12-26T13:31:52.713Z,17.70
2022-12-26T13:34:39.746Z,17.70
2022-12-26T13:37:37.806Z,17.80
2022-12-26T13:40:28.757Z,17.80
2022-12-26T13:43:41.209Z,17.80
2022-12-26T13:46:58.420Z,17.80
2022-12-26T13:49:44.436Z,17.80
2022-12-26T13:52:39.050Z,17.80
2022-12-26T13:55:41.603Z,17.80
2022-12-26T13:59:09.443Z,17.90
2022-12-26T14:02:02.903Z,17.90
2022-12-26T14:05:27.857Z,17.90
2022-12-26T14:08:54.614Z,17.90
2022-12-26T14:11:46.685Z,18.00
2022-12-26T14:15:09.501Z,18.00
2022-12-26T14:18:20.596Z,17.90
2022-12-26T14:21:43.060Z,18.00
2022-12-26T14:24:42.090Z,18.00
2022-12-26T14:27:33.905Z,18.00
2022-12-26T14:30:50.813Z,18.00
2022-12-26T14:33:50.942Z,18.00
2022-12-26T14:36:48.516Z,18.00
2022-12-26T14:40:24.102Z,18.00
2022-12-26T14:43:30.643Z,17.90
2022-12-26T14:46:31.409Z,17.90
2022-12-26T14:49:36.600Z,17.90
2022-12-26T14:52:25.332Z,17.90
2022-12-26T14:55:48.451Z,17.80
2022-12-26T14:58:40.763Z,17.80
2022-12-26T15:01:26.275Z,17.80
2022-12-26T15:04:51.215Z,17.80
2022-12-26T15:07:50.720Z,17.70
2022-12-26T15:10:53.611Z,17.70
2022-12-26T15:13:50.531Z,17.70
2022-12-26T15:17:01.400Z,17.70
2022-12-26T15:20:16.564Z,16.60
2022-12-26T15:23:23.342Z,17.60
2022-12-26T15:26:30.323Z,17.60
2022-12-26T15:29:46.730Z,17.60
2022-12-26T15:32:53.832Z,17.60
2022-12-26T15:35:50.558Z,17.60
2022-12-26T15:38:48.577Z,17.70
2022-12-26T15:41:46.422Z,17.70
2022-12-26T15:45:10.858Z,17.70
2022-12-26T15:48:03.895Z,17.70
2022-12-26T15:50:57.074Z,17.80
2022-12-26T15:53:54.555Z,17.80
2022-12-26T15:57:16.124Z,17.80
2022-12-26T16:00:11.185Z,17.80
2022-12-26T16:03:41.652Z,17.80
2022-12-26T16:06:58.979Z,17.80
2022-12-26T16:09:48.034Z,17.70
2022-12-26T16:12:35.439Z,17.80
2022-12-26T16:15:24.989Z,17.70
2022-12-26T16:18:19.811Z,17.70
2022-12-26T16:21:25.661Z,17.60
2022-12-26T16:24:13.469Z,17.60
2022-12-26T16:27:03.216Z,17.60
2022-12-26T16:30:09.672Z,17.60
2022-12-26T16:33:00.203Z,17.60
2022-12-26T16:35:45.925Z,17.60
2022-12-26T16:38:32.644Z,17.60
2022-12-26T16:41:57.020Z,17.60
2022-12-26T16:44:44.409Z,17.50
2022-12-26T16:47:32.459Z,17.60
2022-12-26T16:50:20.960Z,17.60
2022-12-26T16:53:21.489Z,17.60
2022-12-26T16:56:33.640Z,17.60
2022-12-26T16:59:24.706Z,17.60
2022-12-26T17:02:28.129Z,17.60
2022-12-26T17:05:21.630Z,17.60
2022-12-26T17:08:07.349Z,17.60
2022-12-26T17:10:53.364Z,17.60
2022-12-26T17:13:39.614Z,17.60
2022-12-26T17:16:28.499Z,17.50
2022-12-26T17:19:21.759Z,17.50
2022-12-26T17:22:20.872Z,17.50
2022-12-26T17:25:26.580Z,17.50
2022-12-26T17:28:15.237Z,17.50
2022-12-26T17:31:13.720Z,17.50
2022-12-26T17:34:02.194Z,17.50
2022-12-26T17:40:15.856Z,17.50
2022-12-26T17:43:11.544Z,17.60
2022-12-26T17:45:57.325Z,17.50
2022-12-26T17:48:43.610Z,17.50
2022-12-26T17:51:30.423Z,17.50
2022-12-26T17:54:17.048Z,17.40
2022-12-26T17:57:02.860Z,17.40
2022-12-26T17:59:49.187Z,17.40
2022-12-26T18:02:34.811Z,17.30
2022-12-26T18:05:21.847Z,17.30
2022-12-26T18:08:08.406Z,17.30
2022-12-26T18:10:54.519Z,17.30
2022-12-26T18:13:40.325Z,17.30
2022-12-26T18:16:29.478Z,17.30
2022-12-26T18:19:16.621Z,17.30
2022-12-26T18:22:02.391Z,17.20
2022-12-26T18:24:47.784Z,17.20
2022-12-26T18:27:34.189Z,17.20
2022-12-26T18:30:25.136Z,17.20
2022-12-26T18:33:11.478Z,17.20
2022-12-26T18:35:57.561Z,17.30
2022-12-26T18:38:44.423Z,17.20
2022-12-26T18:41:30.331Z,17.20
2022-12-26T18:44:19.169Z,17.20
2022-12-26T18:47:05.014Z,17.20
2022-12-26T18:49:50.455Z,17.10
2022-12-26T18:52:35.857Z,17.20
2022-12-26T18:55:23.237Z,17.10
2022-12-26T18:58:08.857Z,17.10
2022-12-26T19:00:54.383Z,17.10
2022-12-26T19:03:40.305Z,17.10
2022-12-26T19:06:29.150Z,17.20
2022-12-26T19:09:15.137Z,17.10
2022-12-26T19:12:00.563Z,17.20
2022-12-26T19:14:47.000Z,17.10
2022-12-26T19:17:32.742Z,17.10
2022-12-26T19:20:21.857Z,17.10
2022-12-26T19:23:07.554Z,17.10
2022-12-26T19:25:53.013Z,17.10
2022-12-26T19:28:39.280Z,17.10
2022-12-26T19:31:25.062Z,17.10
2022-12-26T19:34:10.541Z,17.10
2022-12-26T19:36:56.110Z,17.10
2022-12-26T19:39:42.093Z,17.00
2022-12-26T19:42:27.677Z,17.00
2022-12-26T19:45:13.755Z,17.00
2022-12-26T19:47:59.671Z,17.00
2022-12-26T19:50:45.160Z,17.00
2022-12-26T19:53:30.897Z,17.00
2022-12-26T19:56:20.172Z,17.00
2022-12-26T19:59:05.494Z,16.90
2022-12-26T20:01:51.323Z,16.90
2022-12-26T20:04:36.902Z,16.90
2022-12-26T20:07:22.300Z,16.90
2022-12-26T20:10:08.121Z,16.90
2022-12-26T20:12:53.775Z,16.90
2022-12-26T20:15:39.257Z,16.90
2022-12-26T20:18:24.659Z,16.80
2022-12-26T20:21:11.907Z,16.80
2022-12-26T20:23:59.262Z,16.90
2022-12-26T20:26:45.119Z,16.80
2022-12-26T20:29:31.172Z,16.80
2022-12-26T20:32:17.001Z,16.80
2022-12-26T20:35:02.630Z,16.80
2022-12-26T20:37:48.134Z,16.90
2022-12-26T20:40:33.540Z,16.80
2022-12-26T20:43:20.711Z,16.80
2022-12-26T20:46:09.047Z,16.80
2022-12-26T20:48:55.196Z,16.80
2022-12-26T20:51:42.271Z,16.80
2022-12-26T20:54:27.851Z,16.80
2022-12-26T20:57:13.669Z,16.80
2022-12-26T20:59:59.185Z,16.80
2022-12-26T21:02:44.952Z,16.80
2022-12-26T21:05:30.534Z,16.80
2022-12-26T21:08:16.179Z,16.70
2022-12-26T21:11:23.995Z,16.70
2022-12-26T21:14:16.467Z,16.80
2022-12-26T21:17:02.414Z,16.80
2022-12-26T21:19:47.990Z,16.70
2022-12-26T21:22:33.825Z,16.70
2022-12-26T21:25:19.297Z,16.70
2022-12-26T21:28:04.977Z,16.70
2022-12-26T21:30:50.506Z,16.70
2022-12-26T21:33:44.017Z,16.60
2022-12-26T21:36:30.853Z,16.60
2022-12-26T21:39:16.290Z,16.60
2022-12-26T21:42:02.472Z,16.60
2022-12-26T21:44:48.253Z,16.60
2022-12-26T21:47:33.777Z,16.60
2022-12-26T21:50:19.384Z,16.60
2022-12-26T21:53:04.887Z,16.60
2022-12-26T21:55:50.410Z,16.60
2022-12-26T21:58:56.083Z,16.60
2022-12-26T22:01:41.808Z,16.60
2022-12-26T22:04:28.572Z,16.60
2022-12-26T22:07:14.328Z,16.60
2022-12-26T22:09:59.991Z,16.60
2022-12-26T22:12:57.595Z,16.70
2022-12-26T22:16:03.476Z,16.60
2022-12-26T22:18:49.006Z,16.60
2022-12-26T22:21:34.511Z,16.60
2022-12-26T22:24:21.772Z,16.60
2022-12-26T22:27:07.290Z,16.60
2022-12-26T22:29:52.681Z,16.60
2022-12-26T22:32:38.224Z,16.60
2022-12-26T22:35:24.056Z,16.60
2022-12-26T22:38:09.646Z,16.60
2022-12-26T22:40:58.030Z,16.60
2022-12-26T22:43:43.553Z,16.60
2022-12-26T22:46:29.219Z,16.60
2022-12-26T22:49:14.975Z,16.60
2022-12-26T22:52:00.450Z,16.50
2022-12-26T22:54:46.180Z,16.10
2022-12-26T22:57:31.941Z,15.50
2022-12-26T23:00:17.453Z,14.80
2022-12-26T23:03:03.337Z,14.00
2022-12-26T23:05:49.830Z,13.50
2022-12-26T23:08:35.704Z,13.00
2022-12-26T23:11:22.459Z,12.80
2022-12-26T23:14:09.287Z,12.50
2022-12-26T23:16:57.853Z,12.30
2022-12-26T23:20:07.056Z,12.20
2022-12-26T23:22:52.832Z,12.00
2022-12-26T23:25:39.085Z,11.70
2022-12-26T23:28:43.140Z,11.60
2022-12-26T23:31:28.788Z,11.50
2022-12-26T23:34:14.860Z,11.40
2022-12-26T23:37:00.478Z,11.20
2022-12-26T23:39:46.059Z,11.20
2022-12-26T23:42:31.572Z,11.30
2022-12-26T23:45:17.348Z,11.10
2022-12-26T23:48:03.046Z,11.10
2022-12-26T23:50:49.585Z,11.00
2022-12-26T23:53:35.504Z,10.90
2022-12-26T23:56:20.900Z,10.90
2022-12-26T23:59:06.725Z,10.70
